createdAt,value
2023-01-25T00:01:31.455Z,101523.31
2023-01-25T00:03:58.296Z,101516.28
2023-01-25T00:06:24.590Z,101514.63
2023-01-25T00:08:51.917Z,101518.13
2023-01-25T00:11:19.744Z,101523.25
2023-01-25T00:13:46.202Z,101509.53
2023-01-25T00:16:12.792Z,101510.28
2023-01-25T00:18:39.112Z,101507.72
2023-01-25T00:21:12.784Z,101514.53
2023-01-25T00:23:39.134Z,101505.78
2023-01-25T00:26:05.442Z,101509.41
2023-01-25T00:28:31.729Z,101514.50
2023-01-25T00:31:02.534Z,101510.81
2023-01-25T00:33:37.950Z,101509.22
2023-01-25T00:36:39.619Z,101507.56
2023-01-25T00:39:10.082Z,101506.44
2023-01-25T00:41:36.459Z,101498.06
2023-01-25T00:44:02.908Z,101496.28
2023-01-25T00:46:29.279Z,101485.13
2023-01-25T00:48:56.666Z,101499.00
2023-01-25T00:51:24.362Z,101491.22
2023-01-25T00:53:51.238Z,101485.03
2023-01-25T00:56:17.675Z,101487.66
2023-01-25T00:58:44.510Z,101490.19
2023-01-25T01:01:12.590Z,101479.56
2023-01-25T01:03:39.359Z,101486.59
2023-01-25T01:06:09.963Z,101475.22
2023-01-25T01:08:39.996Z,101482.03
2023-01-25T01:11:08.917Z,101477.69
2023-01-25T01:13:35.606Z,101483.16
2023-01-25T01:16:04.886Z,101469.31
2023-01-25T01:18:40.101Z,101479.78
2023-01-25T01:21:07.991Z,101476.34
2023-01-25T01:23:35.482Z,101485.91
2023-01-25T01:26:03.590Z,101491.06
2023-01-25T01:28:30.908Z,101481.56
2023-01-25T01:31:04.956Z,101485.00
2023-01-25T01:33:36.164Z,101474.69
2023-01-25T01:36:16.430Z,101477.22
2023-01-25T01:38:43.279Z,101471.16
2023-01-25T01:41:10.860Z,101471.16
2023-01-25T01:43:37.805Z,101475.53
2023-01-25T01:46:20.555Z,101479.84
2023-01-25T01:49:05.521Z,101474.69
2023-01-25T01:51:44.563Z,101477.16
2023-01-25T01:54:28.706Z,101469.38
2023-01-25T01:57:02.209Z,101471.84
2023-01-25T01:59:36.009Z,101475.38
2023-01-25T02:02:02.971Z,101465.91
2023-01-25T02:04:30.079Z,101467.75
2023-01-25T02:07:14.895Z,101465.25
2023-01-25T02:09:43.195Z,101467.72
2023-01-25T02:12:12.795Z,101466.78
2023-01-25T02:14:47.932Z,101461.63
2023-01-25T02:17:29.615Z,101475.47
2023-01-25T02:20:17.571Z,101470.25
2023-01-25T02:23:00.146Z,101460.69
2023-01-25T02:25:28.029Z,101472.78
2023-01-25T02:28:29.360Z,101464.88
2023-01-25T02:30:55.939Z,101466.69
2023-01-25T02:33:25.002Z,101465.81
2023-01-25T02:36:12.427Z,101461.44
2023-01-25T02:38:42.222Z,101466.72
2023-01-25T02:41:15.515Z,101462.44
2023-01-25T02:43:42.574Z,101465.09
2023-01-25T02:46:27.331Z,101456.25
2023-01-25T02:48:55.465Z,101463.41
2023-01-25T02:51:23.653Z,101456.50
2023-01-25T02:53:50.222Z,101444.94
2023-01-25T02:56:17.621Z,101456.41
2023-01-25T02:58:44.712Z,101452.91
2023-01-25T03:01:13.222Z,101441.47
2023-01-25T03:03:40.631Z,101451.31
2023-01-25T03:06:07.698Z,101434.66
2023-01-25T03:08:34.793Z,101433.88
2023-01-25T03:11:04.309Z,101440.56
2023-01-25T03:13:31.966Z,101432.78
2023-01-25T03:16:05.353Z,101432.78
2023-01-25T03:18:32.659Z,101442.41
2023-01-25T03:21:11.953Z,101431.97
2023-01-25T03:23:39.292Z,101425.94
2023-01-25T03:26:20.605Z,101432.88
2023-01-25T03:29:22.443Z,101416.28
2023-01-25T03:31:49.850Z,101422.56
2023-01-25T03:34:16.263Z,101414.78
2023-01-25T03:36:43.270Z,101413.00
2023-01-25T03:39:09.994Z,101413.97
2023-01-25T03:41:40.803Z,101406.00
2023-01-25T03:44:12.839Z,101414.63
2023-01-25T03:46:41.741Z,101417.25
2023-01-25T03:49:08.935Z,101408.44
2023-01-25T03:51:35.871Z,101416.28
2023-01-25T03:54:03.193Z,101400.75
2023-01-25T03:56:29.717Z,101411.19
2023-01-25T03:59:08.335Z,101414.75
2023-01-25T04:01:34.791Z,101403.34
2023-01-25T04:04:02.378Z,101405.88
2023-01-25T04:06:29.199Z,101395.56
2023-01-25T04:08:55.999Z,101412.91
2023-01-25T04:11:24.724Z,101412.03
2023-01-25T04:13:51.117Z,101407.97
2023-01-25T04:16:20.113Z,101408.75
2023-01-25T04:19:16.215Z,101396.56
2023-01-25T04:21:42.754Z,101401.06
2023-01-25T04:24:09.396Z,101392.28
2023-01-25T04:26:38.736Z,101401.59
2023-01-25T04:29:05.790Z,101399.06
2023-01-25T04:31:33.329Z,101397.06
2023-01-25T04:34:00.348Z,101391.94
2023-01-25T04:36:27.827Z,101385.25
2023-01-25T04:38:55.737Z,101388.69
2023-01-25T04:41:26.705Z,101380.81
2023-01-25T04:43:53.807Z,101377.41
2023-01-25T04:46:20.436Z,101372.28
2023-01-25T04:48:46.800Z,101374.22
2023-01-25T04:51:15.341Z,101369.72
2023-01-25T04:53:41.910Z,101366.03
2023-01-25T04:56:09.431Z,101360.13
2023-01-25T04:58:44.699Z,101351.47
2023-01-25T05:01:11.735Z,101356.69
2023-01-25T05:03:38.261Z,101350.66
2023-01-25T05:06:09.335Z,101360.00
2023-01-25T05:08:35.784Z,101356.63
2023-01-25T05:11:02.885Z,101354.13
2023-01-25T05:13:54.778Z,101353.25
2023-01-25T05:16:28.832Z,101347.84
2023-01-25T05:18:56.066Z,101345.44
2023-01-25T05:21:49.052Z,101342.19
2023-01-25T05:24:15.483Z,101337.78
2023-01-25T05:27:00.670Z,101347.16
2023-01-25T05:29:38.514Z,101340.22
2023-01-25T05:32:09.765Z,101342.91
2023-01-25T05:34:37.059Z,101340.84
2023-01-25T05:37:05.308Z,101331.44
2023-01-25T05:39:32.827Z,101345.03
2023-01-25T05:41:59.476Z,101339.06
2023-01-25T05:44:25.879Z,101341.22
2023-01-25T05:46:52.632Z,101331.69
2023-01-25T05:49:19.593Z,101338.50
2023-01-25T05:51:46.537Z,101332.56
2023-01-25T05:54:16.174Z,101328.94
2023-01-25T05:56:51.667Z,101337.56
2023-01-25T05:59:18.333Z,101333.16
2023-01-25T06:01:45.298Z,101331.94
2023-01-25T06:04:15.362Z,101328.56
2023-01-25T06:06:41.995Z,101325.19
2023-01-25T06:09:10.972Z,101317.50
2023-01-25T06:11:37.354Z,101320.06
2023-01-25T06:14:04.037Z,101322.66
2023-01-25T06:16:31.094Z,101331.34
2023-01-25T06:19:16.174Z,101334.16
2023-01-25T06:22:07.952Z,101323.78
2023-01-25T06:24:34.309Z,101335.97
2023-01-25T06:27:00.592Z,101311.72
2023-01-25T06:29:26.883Z,101322.19
2023-01-25T06:31:55.049Z,101322.16
2023-01-25T06:34:22.600Z,101317.84
2023-01-25T06:36:49.212Z,101320.47
2023-01-25T06:39:15.550Z,101321.31
2023-01-25T06:41:41.933Z,101315.34
2023-01-25T06:44:09.145Z,101328.47
2023-01-25T06:46:35.483Z,101313.69
2023-01-25T06:49:01.889Z,101314.66
2023-01-25T06:51:29.256Z,101320.53
2023-01-25T06:53:55.605Z,101322.41
2023-01-25T06:56:22.580Z,101323.97
2023-01-25T06:58:49.534Z,101311.09
2023-01-25T07:01:21.680Z,101327.56
2023-01-25T07:03:49.757Z,101329.03
2023-01-25T07:06:16.098Z,101316.94
2023-01-25T07:08:42.408Z,101332.72
2023-01-25T07:11:13.599Z,101325.75
2023-01-25T07:13:40.997Z,101324.78
2023-01-25T07:16:10.812Z,101325.66
2023-01-25T07:18:37.519Z,101326.53
2023-01-25T07:21:06.535Z,101321.38
2023-01-25T07:23:34.397Z,101320.59
2023-01-25T07:26:01.574Z,101322.41
2023-01-25T07:28:28.337Z,101327.63
2023-01-25T07:30:54.950Z,101317.19
2023-01-25T07:33:21.270Z,101327.56
2023-01-25T07:35:50.866Z,101310.97
2023-01-25T07:38:17.622Z,101320.59
2023-01-25T07:40:43.995Z,101311.09
2023-01-25T07:43:10.688Z,101310.94
2023-01-25T07:45:37.110Z,101302.22
2023-01-25T07:48:10.165Z,101322.19
2023-01-25T07:50:36.577Z,101321.34
2023-01-25T07:53:02.945Z,101318.94
2023-01-25T07:55:29.379Z,101313.41
2023-01-25T07:57:55.743Z,101305.03
2023-01-25T08:00:23.971Z,101313.63
2023-01-25T08:02:51.779Z,101311.16
2023-01-25T08:05:18.304Z,101325.84
2023-01-25T08:07:46.114Z,101323.94
2023-01-25T08:10:12.765Z,101325.53
2023-01-25T08:12:39.097Z,101318.00
2023-01-25T08:15:06.124Z,101330.06
2023-01-25T08:17:33.111Z,101314.53
2023-01-25T08:20:00.312Z,101316.38
2023-01-25T08:22:26.923Z,101309.44
2023-01-25T08:24:53.501Z,101321.47
2023-01-25T08:27:20.481Z,101320.56
2023-01-25T08:29:46.966Z,101323.09
2023-01-25T08:32:13.402Z,101319.81
2023-01-25T08:34:40.890Z,101321.69
2023-01-25T08:37:07.202Z,101311.31
2023-01-25T08:39:33.543Z,101318.16
2023-01-25T08:42:00.097Z,101311.16
2023-01-25T08:44:26.426Z,101308.63
2023-01-25T08:46:52.809Z,101311.97
2023-01-25T08:49:19.260Z,101312.81
2023-01-25T08:51:47.200Z,101305.91
2023-01-25T08:54:13.535Z,101310.28
2023-01-25T08:56:41.344Z,101307.72
2023-01-25T08:59:10.669Z,101312.88
2023-01-25T09:01:37.002Z,101311.25
2023-01-25T09:04:03.407Z,101301.63
2023-01-25T09:06:29.946Z,101303.34
2023-01-25T09:08:58.030Z,101307.59
2023-01-25T09:11:24.457Z,101305.03
2023-01-25T09:13:50.892Z,101306.81
2023-01-25T09:16:22.633Z,101292.81
2023-01-25T09:18:50.938Z,101288.47
2023-01-25T09:21:18.605Z,101290.22
2023-01-25T09:24:05.360Z,101284.88
2023-01-25T09:26:34.375Z,101282.47
2023-01-25T09:29:00.779Z,101273.91
2023-01-25T09:31:30.098Z,101270.47
2023-01-25T09:34:11.262Z,101271.16
2023-01-25T09:36:39.291Z,101276.41
2023-01-25T09:39:05.682Z,101284.25
2023-01-25T09:41:42.317Z,101281.72
2023-01-25T09:44:32.244Z,101275.63
2023-01-25T09:47:24.061Z,101271.38
2023-01-25T09:50:31.615Z,101273.94
2023-01-25T09:53:25.781Z,101281.44
2023-01-25T09:55:55.851Z,101270.31
2023-01-25T09:58:29.562Z,101271.94
2023-01-25T10:01:15.034Z,101261.41
2023-01-25T10:03:53.515Z,101259.66
2023-01-25T10:06:23.261Z,101253.34
2023-01-25T10:08:58.687Z,101244.19
2023-01-25T10:11:26.568Z,101256.41
2023-01-25T10:13:55.967Z,101245.97
2023-01-25T10:16:47.054Z,101235.47
2023-01-25T10:19:42.886Z,101244.16
2023-01-25T10:22:19.565Z,101237.31
2023-01-25T10:25:31.074Z,101232.00
2023-01-25T10:28:08.661Z,101231.09
2023-01-25T10:31:00.098Z,101236.19
2023-01-25T10:33:28.378Z,101230.34
2023-01-25T10:35:55.701Z,101232.91
2023-01-25T10:38:28.158Z,101224.41
2023-01-25T10:41:34.018Z,101218.13
2023-01-25T10:44:19.035Z,101205.19
2023-01-25T10:46:51.878Z,101209.44
2023-01-25T10:49:22.163Z,101197.31
2023-01-25T10:51:48.516Z,101194.78
2023-01-25T10:54:16.386Z,101189.59
2023-01-25T10:56:45.310Z,101193.91
2023-01-25T10:59:20.357Z,101185.25
2023-01-25T11:01:46.734Z,101193.72
2023-01-25T11:04:35.122Z,101189.53
2023-01-25T11:07:05.658Z,101181.75
2023-01-25T11:09:34.175Z,101177.50
2023-01-25T11:12:03.351Z,101163.56
2023-01-25T11:14:32.511Z,101161.44
2023-01-25T11:17:03.415Z,101152.91
2023-01-25T11:19:34.340Z,101160.88
2023-01-25T11:22:20.222Z,101157.59
2023-01-25T11:24:46.639Z,101147.09
2023-01-25T11:27:12.938Z,101154.16
2023-01-25T11:29:39.664Z,101153.09
2023-01-25T11:32:20.190Z,101156.47
2023-01-25T11:34:46.583Z,101152.22
2023-01-25T11:37:30.787Z,101154.66
2023-01-25T11:40:21.429Z,101149.78
2023-01-25T11:43:06.850Z,101141.88
2023-01-25T11:46:04.157Z,101142.75
2023-01-25T11:48:57.225Z,101129.56
2023-01-25T11:51:40.937Z,101121.50
2023-01-25T11:54:32.093Z,101111.28
2023-01-25T11:57:36.027Z,101106.25
2023-01-25T12:00:27.493Z,101105.94
2023-01-25T12:03:12.434Z,101100.03
2023-01-25T12:06:03.211Z,101089.44
2023-01-25T12:08:35.434Z,101084.47
2023-01-25T12:11:10.783Z,101075.66
2023-01-25T12:13:58.438Z,101069.22
2023-01-25T12:16:43.892Z,101066.16
2023-01-25T12:19:39.034Z,101064.16
2023-01-25T12:22:20.626Z,101053.97
2023-01-25T12:25:08.856Z,101047.78
2023-01-25T12:28:11.939Z,101038.59
2023-01-25T12:31:07.268Z,101042.84
2023-01-25T12:33:36.214Z,101031.47
2023-01-25T12:36:15.947Z,101029.78
2023-01-25T12:38:50.396Z,101020.00
2023-01-25T12:41:51.807Z,101023.44
2023-01-25T12:44:21.166Z,101020.72
2023-01-25T12:46:56.619Z,101012.78
2023-01-25T12:49:33.559Z,101008.72
2023-01-25T12:52:05.375Z,100993.19
2023-01-25T12:54:37.667Z,100996.63
2023-01-25T12:57:41.841Z,100996.13
2023-01-25T13:00:22.099Z,100983.94
2023-01-25T13:03:12.131Z,100977.81
2023-01-25T13:05:58.735Z,100975.88
2023-01-25T13:08:49.904Z,100959.50
2023-01-25T13:11:33.320Z,100952.59
2023-01-25T13:14:18.265Z,100954.28
2023-01-25T13:17:01.367Z,100949.28
2023-01-25T13:19:31.214Z,100953.56
2023-01-25T13:21:59.499Z,100947.59
2023-01-25T13:24:33.746Z,100941.50
2023-01-25T13:27:21.945Z,100949.19
2023-01-25T13:29:55.602Z,100947.28
2023-01-25T13:32:24.728Z,100950.78
2023-01-25T13:34:51.081Z,100939.41
2023-01-25T13:37:30.472Z,100937.59
2023-01-25T13:40:07.780Z,100931.50
2023-01-25T13:42:37.135Z,100927.13
2023-01-25T13:45:15.728Z,100916.69
2023-01-25T13:47:43.570Z,100900.22
2023-01-25T13:50:26.807Z,100906.56
2023-01-25T13:53:05.729Z,100898.75
2023-01-25T13:55:40.764Z,100889.91
2023-01-25T13:58:30.962Z,100886.91
2023-01-25T14:00:58.806Z,100889.28
2023-01-25T14:03:30.783Z,100879.88
2023-01-25T14:05:59.292Z,100885.81
2023-01-25T14:08:26.673Z,100889.38
2023-01-25T14:10:54.372Z,100886.41
2023-01-25T14:13:20.966Z,100871.84
2023-01-25T14:15:58.431Z,100871.97
2023-01-25T14:18:32.617Z,100870.22
2023-01-25T14:21:19.429Z,100862.44
2023-01-25T14:23:46.740Z,100853.75
2023-01-25T14:26:20.439Z,100856.16
2023-01-25T14:29:01.940Z,100854.31
2023-01-25T14:31:34.832Z,100844.69
2023-01-25T14:34:04.600Z,100853.44
2023-01-25T14:36:34.073Z,100847.19
2023-01-25T14:39:00.999Z,100845.53
2023-01-25T14:41:35.807Z,100840.44
2023-01-25T14:44:12.075Z,100841.28
2023-01-25T14:46:39.870Z,100836.97
2023-01-25T14:49:15.207Z,100830.41
2023-01-25T14:51:46.721Z,100835.50
2023-01-25T14:54:17.773Z,100827.69
2023-01-25T14:56:50.151Z,100827.00
2023-01-25T14:59:39.629Z,100826.25
2023-01-25T15:02:23.249Z,100821.16
2023-01-25T15:05:02.795Z,100811.69
2023-01-25T15:07:42.334Z,100811.25
2023-01-25T15:10:16.455Z,100819.19
2023-01-25T15:12:58.499Z,100804.50
2023-01-25T15:15:33.607Z,100799.56
2023-01-25T15:18:00.455Z,100800.16
2023-01-25T15:20:28.192Z,100805.16
2023-01-25T15:22:57.035Z,100800.03
2023-01-25T15:25:24.485Z,100804.16
2023-01-25T15:27:51.085Z,100798.03
2023-01-25T15:30:18.790Z,100798.00
2023-01-25T15:32:46.143Z,100797.06
2023-01-25T15:35:14.783Z,100794.56
2023-01-25T15:37:41.763Z,100794.28
2023-01-25T15:40:10.551Z,100795.41
2023-01-25T15:42:37.080Z,100788.84
2023-01-25T15:45:05.187Z,100787.28
2023-01-25T15:47:33.313Z,100787.00
2023-01-25T15:49:59.634Z,100779.38
2023-01-25T15:52:25.979Z,100787.31
2023-01-25T15:55:01.338Z,100780.34
2023-01-25T15:57:32.271Z,100783.06
2023-01-25T16:00:00.623Z,100774.63
2023-01-25T16:02:31.128Z,100779.44
2023-01-25T16:04:57.479Z,100761.28
2023-01-25T16:07:27.017Z,100773.63
2023-01-25T16:09:53.380Z,100767.50
2023-01-25T16:12:22.105Z,100768.38
2023-01-25T16:14:48.820Z,100766.00
2023-01-25T16:17:20.711Z,100774.63
2023-01-25T16:19:47.856Z,100768.31
2023-01-25T16:22:15.184Z,100756.09
2023-01-25T16:24:42.677Z,100760.41
2023-01-25T16:27:18.230Z,100752.03
2023-01-25T16:29:44.549Z,100758.78
2023-01-25T16:32:12.293Z,100748.38
2023-01-25T16:34:38.798Z,100762.16
2023-01-25T16:37:05.313Z,100754.41
2023-01-25T16:39:32.182Z,100764.19
2023-01-25T16:41:58.646Z,100760.25
2023-01-25T16:44:25.072Z,100760.44
2023-01-25T16:46:51.424Z,100758.16
2023-01-25T16:49:26.321Z,100755.31
2023-01-25T16:51:56.516Z,100757.22
2023-01-25T16:54:23.698Z,100762.31
2023-01-25T16:56:50.963Z,100758.78
2023-01-25T16:59:18.137Z,100758.75
2023-01-25T17:01:44.722Z,100753.69
2023-01-25T17:04:11.483Z,100746.66
2023-01-25T17:06:44.078Z,100751.59
2023-01-25T17:09:22.943Z,100756.34
2023-01-25T17:11:50.363Z,100751.44
2023-01-25T17:14:18.883Z,100756.69
2023-01-25T17:16:47.811Z,100751.13
2023-01-25T17:19:15.884Z,100752.16
2023-01-25T17:21:42.367Z,100743.28
2023-01-25T17:24:11.463Z,100743.06
2023-01-25T17:26:37.853Z,100734.41
2023-01-25T17:29:04.197Z,100730.97
2023-01-25T17:31:33.976Z,100740.31
2023-01-25T17:34:03.047Z,100747.16
2023-01-25T17:36:29.658Z,100735.16
2023-01-25T17:38:55.992Z,100733.16
2023-01-25T17:41:22.323Z,100723.84
2023-01-25T17:43:52.915Z,100727.38
2023-01-25T17:46:25.907Z,100721.75
2023-01-25T17:48:52.992Z,100721.72
2023-01-25T17:51:19.953Z,100726.56
2023-01-25T17:53:46.936Z,100724.00
2023-01-25T17:56:13.502Z,100707.03
2023-01-25T17:58:41.272Z,100711.09
2023-01-25T18:01:17.389Z,100710.31
2023-01-25T18:03:45.129Z,100704.31
2023-01-25T18:06:13.912Z,100707.97
2023-01-25T18:08:42.211Z,100691.44
2023-01-25T18:11:10.458Z,100692.53
2023-01-25T18:13:41.200Z,100694.41
2023-01-25T18:16:09.543Z,100693.38
2023-01-25T18:18:40.542Z,100696.03
2023-01-25T18:21:14.121Z,100684.13
2023-01-25T18:23:43.028Z,100687.88
2023-01-25T18:26:19.197Z,100688.59
2023-01-25T18:28:46.006Z,100685.44
2023-01-25T18:31:13.058Z,100675.75
2023-01-25T18:33:39.502Z,100677.06
2023-01-25T18:36:06.138Z,100677.00
2023-01-25T18:38:32.779Z,100674.28
2023-01-25T18:40:59.509Z,100668.22
2023-01-25T18:43:27.225Z,100655.19
2023-01-25T18:45:58.483Z,100654.31
2023-01-25T18:48:32.311Z,100664.94
2023-01-25T18:51:11.148Z,100662.13
2023-01-25T18:53:39.037Z,100643.97
2023-01-25T18:56:14.422Z,100654.47
2023-01-25T18:58:41.552Z,100655.19
2023-01-25T19:01:28.218Z,100649.03
2023-01-25T19:03:54.538Z,100642.94
2023-01-25T19:06:22.758Z,100635.09
2023-01-25T19:08:54.196Z,100631.44
2023-01-25T19:11:21.451Z,100627.94
2023-01-25T19:13:48.586Z,100619.91
2023-01-25T19:16:20.552Z,100610.09
2023-01-25T19:18:52.743Z,100603.28
2023-01-25T19:21:24.800Z,100615.16
2023-01-25T19:23:52.785Z,100606.78
2023-01-25T19:26:20.844Z,100601.63
2023-01-25T19:28:47.983Z,100617.47
2023-01-25T19:31:17.099Z,100614.88
2023-01-25T19:33:45.131Z,100612.34
2023-01-25T19:36:16.481Z,100610.63
2023-01-25T19:38:43.209Z,100609.72
2023-01-25T19:41:12.852Z,100608.94
2023-01-25T19:43:41.365Z,100601.44
2023-01-25T19:46:09.801Z,100597.72
2023-01-25T19:48:36.858Z,100601.47
2023-01-25T19:51:21.490Z,100598.72
2023-01-25T19:54:00.174Z,100600.25
2023-01-25T19:56:28.406Z,100594.03
2023-01-25T19:58:54.724Z,100593.31
2023-01-25T20:01:29.169Z,100597.59
2023-01-25T20:03:57.865Z,100578.88
2023-01-25T20:06:25.723Z,100595.28
2023-01-25T20:08:53.024Z,100597.72
2023-01-25T20:11:24.489Z,100616.59
2023-01-25T20:13:52.363Z,100609.13
2023-01-25T20:16:19.615Z,100591.34
2023-01-25T20:18:47.292Z,100596.28
2023-01-25T20:21:16.331Z,100592.81
2023-01-25T20:23:44.826Z,100590.53
2023-01-25T20:26:19.208Z,100604.50
2023-01-25T20:28:47.933Z,100584.38
2023-01-25T20:31:25.630Z,100592.25
2023-01-25T20:33:54.570Z,100587.91
2023-01-25T20:36:21.026Z,100584.22
2023-01-25T20:38:47.707Z,100580.84
2023-01-25T20:41:15.601Z,100565.28
2023-01-25T20:43:53.312Z,100559.34
2023-01-25T20:46:21.487Z,100568.16
2023-01-25T20:48:48.431Z,100560.25
2023-01-25T20:51:16.900Z,100565.22
2023-01-25T20:53:45.129Z,100562.78
2023-01-25T20:56:13.006Z,100553.09
2023-01-25T20:58:39.497Z,100539.19
2023-01-25T21:01:20.122Z,100549.19
2023-01-25T21:03:47.402Z,100532.88
2023-01-25T21:06:14.224Z,100534.28
2023-01-25T21:08:40.577Z,100531.69
2023-01-25T21:11:07.833Z,100536.56
2023-01-25T21:13:34.295Z,100526.84
2023-01-25T21:16:10.229Z,100523.28
2023-01-25T21:18:41.401Z,100521.75
2023-01-25T21:21:16.476Z,100523.28
2023-01-25T21:23:44.890Z,100516.13
2023-01-25T21:26:20.584Z,100506.25
2023-01-25T21:28:47.811Z,100495.19
2023-01-25T21:31:20.229Z,100490.59
2023-01-25T21:33:47.334Z,100491.22
2023-01-25T21:36:18.397Z,100482.91
2023-01-25T21:38:49.352Z,100478.53
2023-01-25T21:41:22.176Z,100484.41
2023-01-25T21:44:07.954Z,100477.09
2023-01-25T21:46:34.769Z,100474.59
2023-01-25T21:49:22.539Z,100475.63
2023-01-25T21:51:51.066Z,100473.66
2023-01-25T21:54:24.688Z,100477.34
2023-01-25T21:56:53.105Z,100477.97
2023-01-25T21:59:20.183Z,100469.34
2023-01-25T22:01:47.016Z,100468.66
2023-01-25T22:04:14.930Z,100458.41
2023-01-25T22:06:41.710Z,100475.63
2023-01-25T22:09:08.859Z,100468.97
2023-01-25T22:11:35.690Z,100470.06
2023-01-25T22:14:02.320Z,100471.88
2023-01-25T22:16:31.304Z,100471.38
2023-01-25T22:18:59.852Z,100473.03
2023-01-25T22:21:30.553Z,100470.69
2023-01-25T22:23:58.168Z,100460.91
2023-01-25T22:26:26.996Z,100450.69
2023-01-25T22:28:58.639Z,100454.69
2023-01-25T22:31:30.455Z,100453.59
2023-01-25T22:33:59.027Z,100449.28
2023-01-25T22:36:27.923Z,100455.09
2023-01-25T22:38:54.603Z,100450.13
2023-01-25T22:41:24.387Z,100448.22
2023-01-25T22:43:50.851Z,100443.00
2023-01-25T22:46:19.519Z,100436.72
2023-01-25T22:48:47.003Z,100442.56
2023-01-25T22:51:19.063Z,100429.75
2023-01-25T22:53:45.954Z,100433.34
2023-01-25T22:56:15.042Z,100431.47
2023-01-25T22:58:42.966Z,100424.22
2023-01-25T23:01:11.369Z,100403.66
2023-01-25T23:03:38.272Z,100412.47
2023-01-25T23:06:07.606Z,100402.75
2023-01-25T23:08:36.336Z,100395.72
2023-01-25T23:11:24.694Z,100380.56
2023-01-25T23:14:11.084Z,100392.03
2023-01-25T23:16:37.459Z,100383.31
2023-01-25T23:19:05.260Z,100385.00
2023-01-25T23:21:32.272Z,100381.69
2023-01-25T23:24:03.213Z,100383.41
2023-01-25T23:26:37.266Z,100386.72
2023-01-25T23:29:06.359Z,100382.22
2023-01-25T23:31:32.847Z,100371.72
2023-01-25T23:34:01.776Z,100376.91
2023-01-25T23:36:36.021Z,100376.09
2023-01-25T23:39:02.960Z,100376.25
2023-01-25T23:41:30.644Z,100377.44
2023-01-25T23:43:57.656Z,100368.13
2023-01-25T23:46:24.851Z,100373.41
2023-01-25T23:48:51.330Z,100374.13
2023-01-25T23:51:18.199Z,100357.69
2023-01-25T23:53:44.735Z,100363.59
2023-01-25T23:56:20.613Z,100367.41
2023-01-25T23:58:48.077Z,100372.59
